createdAt,value
2022-08-25T00:02:01.904Z,14.50
2022-08-25T00:07:05.911Z,21.70
2022-08-25T00:12:08.975Z,15.50
2022-08-25T00:17:11.261Z,16.03
2022-08-25T00:22:13.623Z,19.33
2022-08-25T00:27:15.987Z,17.30
2022-08-25T00:32:18.636Z,17.30
2022-08-25T00:37:21.040Z,13.10
2022-08-25T00:42:25.453Z,14.50
2022-08-25T00:47:27.830Z,16.60
2022-08-25T00:52:37.486Z,12.67
2022-08-25T00:57:43.820Z,10.80
2022-08-25T01:02:46.329Z,13.07
2022-08-25T01:07:49.819Z,15.87
2022-08-25T01:12:54.686Z,11.00
2022-08-25T01:17:58.269Z,15.93
2022-08-25T01:23:02.609Z,17.50
2022-08-25T01:28:05.933Z,15.20
2022-08-25T01:33:09.721Z,14.77
2022-08-25T01:38:12.322Z,17.33
2022-08-25T01:43:32.468Z,18.67
2022-08-25T01:48:34.918Z,18.27
2022-08-25T01:53:37.219Z,14.57
2022-08-25T01:58:49.034Z,14.00
2022-08-25T02:03:53.766Z,15.67
2022-08-25T02:09:06.434Z,16.20
2022-08-25T02:14:11.960Z,16.17
2022-08-25T02:19:14.552Z,23.10
2022-08-25T02:24:17.267Z,14.93
2022-08-25T02:29:19.681Z,16.43
2022-08-25T02:34:22.816Z,19.87
2022-08-25T02:39:25.622Z,15.13
2022-08-25T02:44:27.939Z,19.03
2022-08-25T02:49:30.783Z,17.80
2022-08-25T02:54:33.147Z,14.53
2022-08-25T02:59:36.255Z,22.67
2022-08-25T03:04:38.729Z,18.70
2022-08-25T03:09:41.084Z,19.23
2022-08-25T03:14:43.410Z,19.27
2022-08-25T03:19:46.653Z,17.37
2022-08-25T03:24:48.916Z,30.03
2022-08-25T03:29:51.440Z,18.23
2022-08-25T03:34:53.714Z,20.50
2022-08-25T03:39:56.103Z,21.07
2022-08-25T03:44:58.463Z,16.43
2022-08-25T03:50:21.128Z,15.70
2022-08-25T03:55:25.384Z,19.00
2022-08-25T04:00:27.753Z,14.77
2022-08-25T04:05:30.066Z,23.17
2022-08-25T04:10:36.728Z,19.13
2022-08-25T04:15:43.310Z,18.83
2022-08-25T04:20:46.871Z,27.43
2022-08-25T04:25:49.364Z,23.97
2022-08-25T04:30:52.237Z,38.47
2022-08-25T04:35:54.655Z,26.13
2022-08-25T04:41:02.079Z,32.73
2022-08-25T04:46:08.982Z,23.87
2022-08-25T04:51:14.312Z,25.33
2022-08-25T04:56:19.047Z,26.23
2022-08-25T05:01:24.393Z,27.70
2022-08-25T05:06:27.704Z,23.73
2022-08-25T05:11:30.593Z,16.40
2022-08-25T05:16:35.653Z,13.60
2022-08-25T05:21:38.786Z,17.13
2022-08-25T05:26:41.151Z,16.37
2022-08-25T05:31:49.524Z,14.60
2022-08-25T05:36:53.325Z,15.47
2022-08-25T05:41:55.899Z,12.48
2022-08-25T05:46:58.239Z,18.23
2022-08-25T05:52:00.540Z,15.05
2022-08-25T05:57:02.830Z,15.48
2022-08-25T06:02:23.575Z,24.65
2022-08-25T06:07:26.055Z,17.67
2022-08-25T06:12:29.829Z,15.00
2022-08-25T06:17:32.298Z,14.80
2022-08-25T06:22:34.576Z,17.90
2022-08-25T06:27:39.726Z,16.27
2022-08-25T06:32:43.319Z,18.52
2022-08-25T06:37:46.491Z,16.27
2022-08-25T06:42:49.992Z,15.43
2022-08-25T06:47:59.601Z,17.00
2022-08-25T06:53:01.929Z,16.50
2022-08-25T06:58:05.209Z,17.83
2022-08-25T07:03:09.624Z,15.80
2022-08-25T07:08:13.270Z,14.27
2022-08-25T07:13:16.283Z,16.50
2022-08-25T07:18:18.630Z,15.52
2022-08-25T07:23:21.247Z,15.82
2022-08-25T07:28:24.056Z,12.93
2022-08-25T07:33:27.734Z,14.68
2022-08-25T07:38:30.790Z,10.18
2022-08-25T07:43:33.209Z,10.18
2022-08-25T07:48:35.489Z,11.25
2022-08-25T07:53:38.279Z,11.48
2022-08-25T07:58:41.603Z,13.10
2022-08-25T08:03:50.860Z,14.82
2022-08-25T08:08:57.826Z,12.57
2022-08-25T08:14:02.134Z,10.82
2022-08-25T08:19:05.094Z,10.55
2022-08-25T08:24:24.933Z,12.13
2022-08-25T08:29:30.977Z,9.18
2022-08-25T08:34:34.383Z,10.75
2022-08-25T08:39:37.793Z,9.73
2022-08-25T08:44:46.425Z,9.10
2022-08-25T08:50:29.576Z,8.10
2022-08-25T08:55:48.349Z,7.63
2022-08-25T09:00:58.552Z,12.25
2022-08-25T09:06:06.820Z,10.73
2022-08-25T09:11:49.515Z,7.72
2022-08-25T09:17:13.718Z,7.78
2022-08-25T09:22:50.613Z,10.25
2022-08-25T09:28:02.429Z,8.23
2022-08-25T09:33:05.158Z,7.45
2022-08-25T09:38:10.551Z,9.98
2022-08-25T09:43:35.634Z,7.93
2022-08-25T09:48:56.556Z,10.15
2022-08-25T09:54:34.088Z,7.45
2022-08-25T09:59:57.284Z,8.65
2022-08-25T10:05:00.344Z,8.88
2022-08-25T10:10:07.931Z,9.57
2022-08-25T10:15:29.393Z,8.90
2022-08-25T10:20:35.153Z,9.63
2022-08-25T10:25:42.782Z,9.98
2022-08-25T10:31:10.206Z,9.00
2022-08-25T10:36:20.315Z,8.05
2022-08-25T10:41:32.902Z,9.32
2022-08-25T10:46:49.926Z,11.98
2022-08-25T10:52:04.265Z,10.20
2022-08-25T10:57:24.320Z,11.43
2022-08-25T11:02:47.366Z,8.88
2022-08-25T11:07:52.588Z,9.32
2022-08-25T11:13:00.807Z,8.93
2022-08-25T11:18:14.501Z,9.32
2022-08-25T11:23:23.884Z,10.25
2022-08-25T11:28:38.368Z,9.70
2022-08-25T11:33:40.695Z,10.25
2022-08-25T11:38:55.231Z,9.82
2022-08-25T11:44:32.781Z,8.82
2022-08-25T11:50:01.085Z,10.17
2022-08-25T11:55:15.233Z,10.27
2022-08-25T12:00:43.219Z,9.93
2022-08-25T12:06:14.528Z,13.43
2022-08-25T12:11:38.591Z,11.50
2022-08-25T12:16:56.634Z,10.52
2022-08-25T12:27:07.178Z,12.93
2022-08-25T12:32:33.969Z,10.07
2022-08-25T12:38:14.034Z,11.20
2022-08-25T12:43:33.965Z,9.77
2022-08-25T12:48:54.401Z,24.45
2022-08-25T12:54:34.897Z,12.15
2022-08-25T12:59:44.685Z,10.35
2022-08-25T13:05:14.241Z,10.27
2022-08-25T13:10:52.577Z,11.67
2022-08-25T13:16:05.366Z,11.65
2022-08-25T13:21:18.840Z,11.88
2022-08-25T13:26:34.418Z,10.45
2022-08-25T13:31:38.751Z,9.70
2022-08-25T13:37:06.376Z,9.85
2022-08-25T13:42:16.241Z,9.73
2022-08-25T13:47:45.191Z,9.30
2022-08-25T13:52:51.185Z,10.43
2022-08-25T13:57:53.564Z,10.25
2022-08-25T14:02:56.348Z,11.18
2022-08-25T14:08:15.572Z,11.20
2022-08-25T14:13:30.985Z,10.40
2022-08-25T14:18:33.570Z,11.23
2022-08-25T14:23:37.882Z,12.85
2022-08-25T14:28:40.464Z,9.68
2022-08-25T14:33:56.322Z,10.10
2022-08-25T14:38:58.652Z,10.18
2022-08-25T14:44:05.291Z,12.02
2022-08-25T14:49:11.622Z,11.10
2022-08-25T14:54:15.181Z,11.85
2022-08-25T14:59:18.767Z,12.32
2022-08-25T15:04:23.531Z,12.75
2022-08-25T15:09:33.544Z,14.57
2022-08-25T15:14:36.147Z,10.18
2022-08-25T15:19:38.564Z,13.00
2022-08-25T15:24:40.913Z,20.40
2022-08-25T15:29:43.881Z,29.05
2022-08-25T15:34:46.996Z,25.70
2022-08-25T15:39:49.703Z,21.60
2022-08-25T15:44:53.436Z,21.75
2022-08-25T15:50:05.230Z,26.13
2022-08-25T15:55:09.707Z,24.30
2022-08-25T16:00:16.759Z,29.20
2022-08-25T16:05:25.896Z,34.97
2022-08-25T16:10:29.126Z,25.45
2022-08-25T16:15:32.103Z,36.22
2022-08-25T16:20:35.313Z,29.50
2022-08-25T16:25:42.504Z,39.88
2022-08-25T16:30:53.054Z,37.92
2022-08-25T16:36:09.356Z,39.75
2022-08-25T16:41:14.580Z,55.65
2022-08-25T16:46:19.052Z,49.88
2022-08-25T16:51:29.518Z,36.85
2022-08-25T16:56:35.296Z,29.33
2022-08-25T17:01:42.243Z,26.63
2022-08-25T17:06:51.833Z,25.83
2022-08-25T17:11:56.955Z,29.15
2022-08-25T17:16:59.292Z,34.20
2022-08-25T17:22:01.559Z,25.73
2022-08-25T17:27:05.682Z,24.42
2022-08-25T17:32:09.137Z,22.60
2022-08-25T17:37:13.671Z,23.33
2022-08-25T17:42:16.684Z,24.38
2022-08-25T17:47:20.558Z,19.55
2022-08-25T17:52:25.774Z,32.40
2022-08-25T17:57:28.059Z,23.63
2022-08-25T18:02:30.678Z,31.38
2022-08-25T18:07:33.178Z,40.03
2022-08-25T18:12:37.732Z,35.58
2022-08-25T18:17:40.911Z,23.80
2022-08-25T18:22:44.092Z,24.73
2022-08-25T18:27:47.631Z,20.15
2022-08-25T18:32:50.547Z,25.92
2022-08-25T18:38:16.545Z,45.38
2022-08-25T18:43:19.560Z,30.48
2022-08-25T18:48:26.733Z,35.75
2022-08-25T18:53:37.295Z,30.43
2022-08-25T18:58:52.310Z,57.40
2022-08-25T19:03:54.654Z,32.40
2022-08-25T19:08:57.042Z,25.80
2022-08-25T19:14:00.029Z,23.95
2022-08-25T19:19:06.916Z,25.35
2022-08-25T19:24:13.166Z,27.35
2022-08-25T19:29:17.580Z,30.30
2022-08-25T19:34:30.342Z,23.85
2022-08-25T19:39:34.642Z,20.25
2022-08-25T19:44:36.926Z,19.17
2022-08-25T19:49:39.201Z,22.70
2022-08-25T19:54:46.018Z,22.30
2022-08-25T19:59:48.669Z,30.02
2022-08-25T20:04:53.782Z,32.65
2022-08-25T20:09:59.867Z,30.70
2022-08-25T20:15:03.047Z,24.23
2022-08-25T20:20:09.404Z,35.38
2022-08-25T20:25:20.377Z,23.45
2022-08-25T20:30:29.240Z,21.48
2022-08-25T20:35:31.535Z,27.02
2022-08-25T20:40:37.087Z,26.45
2022-08-25T20:45:39.872Z,23.65
2022-08-25T20:50:42.241Z,24.83
2022-08-25T20:55:44.586Z,27.13
2022-08-25T21:00:47.379Z,24.02
2022-08-25T21:05:53.995Z,24.75
2022-08-25T21:10:56.759Z,37.60
2022-08-25T21:16:02.286Z,34.90
2022-08-25T21:21:14.833Z,38.25
2022-08-25T21:26:25.345Z,33.75
2022-08-25T21:31:29.211Z,33.45
2022-08-25T21:36:32.043Z,39.90
2022-08-25T21:41:36.867Z,43.95
2022-08-25T21:46:39.702Z,42.85
2022-08-25T21:51:44.475Z,46.40
2022-08-25T21:56:51.953Z,38.95
2022-08-25T22:02:06.211Z,41.45
2022-08-25T22:07:09.264Z,38.30
2022-08-25T22:12:11.569Z,32.72
2022-08-25T22:17:16.992Z,35.97
2022-08-25T22:22:24.035Z,36.45
2022-08-25T22:27:26.413Z,54.47
2022-08-25T22:32:28.719Z,32.30
2022-08-25T22:37:31.261Z,40.80
2022-08-25T22:42:36.443Z,40.33
2022-08-25T22:47:39.110Z,25.88
2022-08-25T22:52:43.678Z,31.17
2022-08-25T22:57:48.084Z,30.08
2022-08-25T23:02:53.381Z,27.40
2022-08-25T23:07:55.890Z,26.30
2022-08-25T23:12:58.067Z,31.30
2022-08-25T23:18:00.360Z,37.00
2022-08-25T23:23:02.983Z,26.43
2022-08-25T23:28:05.418Z,25.88
2022-08-25T23:33:27.114Z,24.37
2022-08-25T23:38:29.407Z,32.60
2022-08-25T23:43:31.635Z,27.53
2022-08-25T23:48:34.363Z,31.43
2022-08-25T23:53:37.099Z,31.23
2022-08-25T23:58:39.359Z,31.97
